createdAt,value
2018-07-14T00:00:19.934Z,25.90
2018-07-14T00:02:50.510Z,25.92
2018-07-14T00:05:21.422Z,25.77
2018-07-14T00:07:52.113Z,25.74
2018-07-14T00:10:22.705Z,25.58
2018-07-14T00:12:53.638Z,25.53
2018-07-14T00:15:27.831Z,25.58
2018-07-14T00:17:58.665Z,25.58
2018-07-14T00:20:29.374Z,25.44
2018-07-14T00:23:00.228Z,25.51
2018-07-14T00:25:35.912Z,25.44
2018-07-14T00:28:06.685Z,25.43
2018-07-14T00:30:37.434Z,25.51
2018-07-14T00:33:08.110Z,25.57
2018-07-14T00:35:38.749Z,25.77
2018-07-14T00:38:09.431Z,25.78
2018-07-14T00:40:40.130Z,25.63
2018-07-14T00:43:10.820Z,25.38
2018-07-14T00:45:41.316Z,25.40
2018-07-14T00:48:11.949Z,25.38
2018-07-14T00:50:42.677Z,25.26
2018-07-14T00:53:13.425Z,25.20
2018-07-14T00:55:44.025Z,25.12
2018-07-14T00:58:14.712Z,25.34
2018-07-14T01:00:45.307Z,25.26
2018-07-14T01:03:16.133Z,25.16
2018-07-14T01:05:46.641Z,25.06
2018-07-14T01:08:17.350Z,24.94
2018-07-14T01:10:47.889Z,24.93
2018-07-14T01:13:18.581Z,25.08
2018-07-14T01:15:49.417Z,25.05
2018-07-14T01:18:20.512Z,25.10
2018-07-14T01:20:51.208Z,25.10
2018-07-14T01:23:21.997Z,25.06
2018-07-14T01:25:52.693Z,24.73
2018-07-14T01:28:23.499Z,24.79
2018-07-14T01:30:54.197Z,24.70
2018-07-14T01:33:24.893Z,24.65
2018-07-14T01:35:55.549Z,24.46
2018-07-14T01:38:25.874Z,24.39
2018-07-14T01:40:56.565Z,24.42
2018-07-14T01:43:27.336Z,24.39
2018-07-14T01:45:58.010Z,24.32
2018-07-14T01:48:28.722Z,24.36
2018-07-14T01:50:59.225Z,24.56
2018-07-14T01:53:29.854Z,24.24
2018-07-14T01:56:00.493Z,24.48
2018-07-14T01:58:31.079Z,24.38
2018-07-14T02:01:01.683Z,24.31
2018-07-14T02:03:32.641Z,24.30
2018-07-14T02:06:03.105Z,24.35
2018-07-14T02:08:33.873Z,24.11
2018-07-14T02:11:06.533Z,24.22
2018-07-14T02:13:37.281Z,24.27
2018-07-14T02:16:08.110Z,24.39
2018-07-14T02:18:38.428Z,24.35
2018-07-14T02:21:09.264Z,24.24
2018-07-14T02:23:40.045Z,24.34
2018-07-14T02:26:10.633Z,24.41
2018-07-14T02:28:42.865Z,24.58
2018-07-14T02:31:13.548Z,24.59
2018-07-14T02:33:44.061Z,24.67
2018-07-14T02:36:15.217Z,24.78
2018-07-14T02:38:46.050Z,24.82
2018-07-14T02:41:16.729Z,24.79
2018-07-14T02:43:47.439Z,24.84
2018-07-14T02:46:17.999Z,24.89
2018-07-14T02:48:48.833Z,25.02
2018-07-14T02:51:19.450Z,25.01
2018-07-14T02:53:50.138Z,24.90
2018-07-14T02:56:20.753Z,25.01
2018-07-14T02:58:51.689Z,24.99
2018-07-14T03:01:22.318Z,24.99
2018-07-14T03:03:53.058Z,25.19
2018-07-14T03:06:23.723Z,25.12
2018-07-14T03:08:54.297Z,25.00
2018-07-14T03:11:24.769Z,24.91
2018-07-14T03:13:55.653Z,24.82
2018-07-14T03:16:26.279Z,24.87
2018-07-14T03:18:56.758Z,24.81
2018-07-14T03:21:26.698Z,24.91
2018-07-14T03:23:57.110Z,24.91
2018-07-14T03:26:27.673Z,24.89
2018-07-14T03:28:58.062Z,24.87
2018-07-14T03:31:28.457Z,25.05
2018-07-14T03:33:58.856Z,24.99
2018-07-14T03:36:29.282Z,24.99
2018-07-14T03:38:59.638Z,25.21
2018-07-14T03:41:29.995Z,25.41
2018-07-14T03:44:00.512Z,25.29
2018-07-14T03:46:31.946Z,25.31
2018-07-14T03:49:02.144Z,25.45
2018-07-14T03:51:40.265Z,25.68
2018-07-14T03:54:10.960Z,25.46
2018-07-14T03:56:42.073Z,25.30
2018-07-14T03:59:12.741Z,25.31
2018-07-14T04:01:43.466Z,25.52
2018-07-14T04:04:14.311Z,25.72
2018-07-14T04:06:44.930Z,25.64
2018-07-14T04:09:15.450Z,25.79
2018-07-14T04:11:46.047Z,25.89
2018-07-14T04:14:16.349Z,26.02
2018-07-14T04:16:46.825Z,26.16
2018-07-14T04:19:17.136Z,26.29
2018-07-14T04:21:47.459Z,26.27
2018-07-14T04:24:18.069Z,26.30
2018-07-14T04:26:48.417Z,26.23
2018-07-14T04:29:18.834Z,26.56
2018-07-14T04:31:49.218Z,26.67
2018-07-14T04:34:19.765Z,26.77
2018-07-14T04:36:50.130Z,26.83
2018-07-14T04:39:21.033Z,26.86
2018-07-14T04:41:51.393Z,26.91
2018-07-14T04:44:21.996Z,26.81
2018-07-14T04:46:52.425Z,26.98
2018-07-14T04:49:23.282Z,27.06
2018-07-14T04:51:53.663Z,27.17
2018-07-14T04:54:24.210Z,27.62
2018-07-14T04:56:54.094Z,28.05
2018-07-14T04:59:25.009Z,28.25
2018-07-14T05:01:55.714Z,28.36
2018-07-14T05:04:26.439Z,28.82
2018-07-14T05:06:57.278Z,29.08
2018-07-14T05:09:28.046Z,29.40
2018-07-14T05:11:58.746Z,29.30
2018-07-14T05:14:29.478Z,29.41
2018-07-14T05:17:00.157Z,29.68
2018-07-14T05:19:30.842Z,29.93
2018-07-14T05:22:01.533Z,30.18
2018-07-14T05:24:33.380Z,30.06
2018-07-14T05:27:04.171Z,30.31
2018-07-14T05:29:35.014Z,30.35
2018-07-14T05:32:05.681Z,30.39
2018-07-14T05:34:36.781Z,30.19
2018-07-14T05:37:07.590Z,30.46
2018-07-14T05:39:39.988Z,30.59
2018-07-14T05:42:10.677Z,30.77
2018-07-14T05:44:41.516Z,30.86
2018-07-14T05:47:12.231Z,30.72
2018-07-14T05:49:42.762Z,30.77
2018-07-14T05:52:13.500Z,30.61
2018-07-14T05:54:44.345Z,31.10
2018-07-14T05:57:15.069Z,30.97
2018-07-14T05:59:45.854Z,31.27
2018-07-14T06:02:16.566Z,31.39
2018-07-14T06:04:46.833Z,31.36
2018-07-14T06:07:17.445Z,30.93
2018-07-14T06:09:48.272Z,31.33
2018-07-14T06:12:18.948Z,31.55
2018-07-14T06:14:49.670Z,31.69
2018-07-14T06:17:20.364Z,31.68
2018-07-14T06:19:51.269Z,31.95
2018-07-14T06:22:21.997Z,32.14
2018-07-14T06:24:52.987Z,32.12
2018-07-14T06:27:23.629Z,32.48
2018-07-14T06:29:54.601Z,32.67
2018-07-14T06:32:25.269Z,32.64
2018-07-14T06:34:55.757Z,32.63
2018-07-14T06:37:26.109Z,32.44
2018-07-14T06:39:56.582Z,32.84
2018-07-14T06:42:26.964Z,32.88
2018-07-14T06:44:57.434Z,33.00
2018-07-14T06:47:27.876Z,32.80
2018-07-14T06:49:59.428Z,32.94
2018-07-14T06:52:29.970Z,33.53
2018-07-14T06:55:00.446Z,33.34
2018-07-14T06:57:30.782Z,33.40
2018-07-14T07:00:01.586Z,33.77
2018-07-14T07:02:31.906Z,33.85
2018-07-14T07:05:02.850Z,33.87
2018-07-14T07:07:38.186Z,34.07
2018-07-14T07:10:09.026Z,34.65
2018-07-14T07:12:39.681Z,34.25
2018-07-14T07:15:10.516Z,34.66
2018-07-14T07:17:40.945Z,35.27
2018-07-14T07:20:11.692Z,35.39
2018-07-14T07:22:42.081Z,34.84
2018-07-14T07:25:13.014Z,35.12
2018-07-14T07:27:43.215Z,34.58
2018-07-14T07:30:14.142Z,35.08
2018-07-14T07:32:44.801Z,34.89
2018-07-14T07:35:15.679Z,35.34
2018-07-14T07:37:46.371Z,35.51
2018-07-14T07:40:17.042Z,35.59
2018-07-14T07:42:47.357Z,35.40
2018-07-14T07:45:17.974Z,35.48
2018-07-14T07:47:48.809Z,35.39
2018-07-14T07:50:20.562Z,35.96
2018-07-14T07:52:50.861Z,36.29
2018-07-14T07:55:21.445Z,36.54
2018-07-14T07:57:52.053Z,36.46
2018-07-14T08:00:22.389Z,35.76
2018-07-14T08:02:53.123Z,36.03
2018-07-14T08:05:24.337Z,36.50
2018-07-14T08:07:55.106Z,37.00
2018-07-14T08:10:26.009Z,37.56
2018-07-14T08:12:56.619Z,36.58
2018-07-14T08:15:27.425Z,37.08
2018-07-14T08:17:58.549Z,37.34
2018-07-14T08:20:29.364Z,37.10
2018-07-14T08:22:59.925Z,37.15
2018-07-14T08:25:30.629Z,37.22
2018-07-14T08:28:01.322Z,36.79
2018-07-14T08:30:32.321Z,37.61
2018-07-14T08:33:03.030Z,37.64
2018-07-14T08:35:34.139Z,37.76
2018-07-14T08:38:04.812Z,37.73
2018-07-14T08:40:35.553Z,37.45
2018-07-14T08:43:06.350Z,37.48
2018-07-14T08:45:37.474Z,37.49
2018-07-14T08:48:07.821Z,37.42
2018-07-14T08:50:38.550Z,37.30
2018-07-14T08:53:09.434Z,37.45
2018-07-14T08:55:40.650Z,37.06
2018-07-14T08:58:11.229Z,37.41
2018-07-14T09:00:42.093Z,37.60
2018-07-14T09:03:12.421Z,37.85
2018-07-14T09:05:43.182Z,38.03
2018-07-14T09:08:13.978Z,38.84
2018-07-14T09:10:44.978Z,38.85
2018-07-14T09:13:15.649Z,38.37
2018-07-14T09:15:46.559Z,38.66
2018-07-14T09:18:17.058Z,38.66
2018-07-14T09:20:47.525Z,39.32
2018-07-14T09:23:18.281Z,39.95
2018-07-14T09:25:49.057Z,39.33
2018-07-14T09:28:19.747Z,39.23
2018-07-14T09:30:50.449Z,38.44
2018-07-14T09:33:20.983Z,38.68
2018-07-14T09:35:51.881Z,38.97
2018-07-14T09:38:22.581Z,39.30
2018-07-14T09:40:53.521Z,38.95
2018-07-14T09:43:24.286Z,39.20
2018-07-14T09:45:54.949Z,38.71
2018-07-14T09:48:25.642Z,38.62
2018-07-14T09:50:56.552Z,38.13
2018-07-14T09:53:27.293Z,38.19
2018-07-14T09:55:58.282Z,39.16
2018-07-14T09:58:28.933Z,40.49
2018-07-14T10:01:04.387Z,39.05
2018-07-14T10:03:35.042Z,39.30
2018-07-14T10:06:05.938Z,39.05
2018-07-14T10:08:36.646Z,39.44
2018-07-14T10:11:07.313Z,39.57
2018-07-14T10:13:37.865Z,40.14
2018-07-14T10:16:08.557Z,39.92
2018-07-14T10:18:39.223Z,40.02
2018-07-14T10:21:10.102Z,39.51
2018-07-14T10:23:40.625Z,40.55
2018-07-14T10:26:11.455Z,40.84
2018-07-14T10:28:42.083Z,39.86
2018-07-14T10:31:12.902Z,40.64
2018-07-14T10:33:43.824Z,39.54
2018-07-14T10:36:14.571Z,39.59
2018-07-14T10:38:45.377Z,40.49
2018-07-14T10:41:16.063Z,39.92
2018-07-14T10:43:46.773Z,41.11
2018-07-14T10:46:17.699Z,41.57
2018-07-14T10:48:48.442Z,40.30
2018-07-14T10:51:19.246Z,39.85
2018-07-14T10:53:49.829Z,40.63
2018-07-14T10:56:20.604Z,40.78
2018-07-14T10:58:51.270Z,39.62
2018-07-14T11:01:22.213Z,39.17
2018-07-14T11:03:52.953Z,40.01
2018-07-14T11:06:23.925Z,41.13
2018-07-14T11:08:54.510Z,40.94
2018-07-14T11:11:25.530Z,40.89
2018-07-14T11:13:56.090Z,40.68
2018-07-14T11:16:26.774Z,40.03
2018-07-14T11:18:57.530Z,40.46
2018-07-14T11:21:28.233Z,41.28
2018-07-14T11:23:58.962Z,41.51
2018-07-14T11:26:30.172Z,41.07
2018-07-14T11:29:00.341Z,41.69
2018-07-14T11:31:31.170Z,41.02
2018-07-14T11:34:01.957Z,39.59
2018-07-14T11:36:32.886Z,39.82
2018-07-14T11:39:03.878Z,40.53
2018-07-14T11:41:34.703Z,40.85
2018-07-14T11:44:05.663Z,39.42
2018-07-14T11:46:36.766Z,39.49
2018-07-14T11:49:07.486Z,39.90
2018-07-14T11:51:38.261Z,40.58
2018-07-14T11:54:08.880Z,39.40
2018-07-14T11:56:39.645Z,38.99
2018-07-14T11:59:10.319Z,39.51
2018-07-14T12:01:41.159Z,40.65
2018-07-14T12:04:11.745Z,40.83
2018-07-14T12:06:42.472Z,40.58
2018-07-14T12:09:13.240Z,40.33
2018-07-14T12:11:44.118Z,39.57
2018-07-14T12:14:14.822Z,39.29
2018-07-14T12:16:45.823Z,38.82
2018-07-14T12:19:16.486Z,40.70
2018-07-14T12:21:47.365Z,40.48
2018-07-14T12:24:18.037Z,40.54
2018-07-14T12:26:48.927Z,40.90
2018-07-14T12:29:19.438Z,40.86
2018-07-14T12:31:50.218Z,40.57
2018-07-14T12:34:20.889Z,40.54
2018-07-14T12:36:52.746Z,40.99
2018-07-14T12:39:23.626Z,41.46
2018-07-14T12:41:54.558Z,41.62
2018-07-14T12:44:25.314Z,41.02
2018-07-14T12:46:56.278Z,40.55
2018-07-14T12:49:26.975Z,40.16
2018-07-14T12:51:57.895Z,41.11
2018-07-14T12:54:28.770Z,40.97
2018-07-14T12:56:59.805Z,40.92
2018-07-14T12:59:30.523Z,39.49
2018-07-14T13:02:01.406Z,39.23
2018-07-14T13:04:32.037Z,39.60
2018-07-14T13:07:03.079Z,40.13
2018-07-14T13:09:33.867Z,40.44
2018-07-14T13:12:04.748Z,40.32
2018-07-14T13:14:35.441Z,40.63
2018-07-14T13:17:06.508Z,40.62
2018-07-14T13:19:37.246Z,39.44
2018-07-14T13:22:08.350Z,39.85
2018-07-14T13:24:39.031Z,39.39
2018-07-14T13:27:10.137Z,39.38
2018-07-14T13:29:40.974Z,40.10
2018-07-14T13:32:11.882Z,40.11
2018-07-14T13:34:42.409Z,39.87
2018-07-14T13:37:13.238Z,39.38
2018-07-14T13:39:43.960Z,39.68
2018-07-14T13:42:14.758Z,39.70
2018-07-14T13:44:45.515Z,39.77
2018-07-14T13:47:16.438Z,40.20
2018-07-14T13:49:47.152Z,39.92
2018-07-14T13:52:18.023Z,40.21
2018-07-14T13:54:48.750Z,40.38
2018-07-14T13:57:19.554Z,39.33
2018-07-14T13:59:50.223Z,38.71
2018-07-14T14:02:21.137Z,39.06
2018-07-14T14:04:51.726Z,39.24
2018-07-14T14:07:22.623Z,39.32
2018-07-14T14:09:53.301Z,39.29
2018-07-14T14:12:24.386Z,38.73
2018-07-14T14:14:55.273Z,37.97
2018-07-14T14:17:26.226Z,38.70
2018-07-14T14:19:57.127Z,39.25
2018-07-14T14:22:27.853Z,39.56
2018-07-14T14:24:58.678Z,40.30
2018-07-14T14:27:29.669Z,39.24
2018-07-14T14:30:00.282Z,38.05
2018-07-14T14:32:31.129Z,38.37
2018-07-14T14:35:01.827Z,38.75
2018-07-14T14:37:32.013Z,38.59
2018-07-14T14:40:02.370Z,39.20
2018-07-14T14:42:32.733Z,39.45
2018-07-14T14:45:03.139Z,38.91
2018-07-14T14:47:34.006Z,39.04
2018-07-14T14:50:04.761Z,39.63
2018-07-14T14:52:35.673Z,39.62
2018-07-14T14:55:06.602Z,39.74
2018-07-14T14:57:37.306Z,39.62
2018-07-14T15:00:08.032Z,39.31
2018-07-14T15:02:38.817Z,38.76
2018-07-14T15:05:09.306Z,38.41
2018-07-14T15:07:39.985Z,38.34
2018-07-14T15:10:10.762Z,38.07
2018-07-14T15:12:41.677Z,38.97
2018-07-14T15:15:12.331Z,38.56
2018-07-14T15:17:43.222Z,38.31
2018-07-14T15:20:13.594Z,37.91
2018-07-14T15:22:44.634Z,38.02
2018-07-14T15:25:15.406Z,38.33
2018-07-14T15:27:45.991Z,37.63
2018-07-14T15:30:16.709Z,38.16
2018-07-14T15:32:47.453Z,38.26
2018-07-14T15:35:18.058Z,38.13
2018-07-14T15:37:48.778Z,37.84
2018-07-14T15:40:19.606Z,37.60
2018-07-14T15:42:50.211Z,38.29
2018-07-14T15:45:21.025Z,38.03
2018-07-14T15:47:51.934Z,38.67
2018-07-14T15:50:22.726Z,38.16
2018-07-14T15:52:53.939Z,37.30
2018-07-14T15:55:25.222Z,37.82
2018-07-14T15:57:56.133Z,37.70
2018-07-14T16:00:26.702Z,37.36
2018-07-14T16:02:57.602Z,37.21
2018-07-14T16:05:28.354Z,37.40
2018-07-14T16:07:59.251Z,37.73
2018-07-14T16:10:29.870Z,37.68
2018-07-14T16:13:00.480Z,37.48
2018-07-14T16:15:31.244Z,37.67
2018-07-14T16:18:01.931Z,37.04
2018-07-14T16:20:32.617Z,36.53
2018-07-14T16:23:03.594Z,36.84
2018-07-14T16:25:34.187Z,36.69
2018-07-14T16:28:05.039Z,36.62
2018-07-14T16:30:35.113Z,36.59
2018-07-14T16:33:05.982Z,36.31
2018-07-14T16:35:36.899Z,36.33
2018-07-14T16:38:07.642Z,36.40
2018-07-14T16:40:38.445Z,36.44
2018-07-14T16:43:09.187Z,36.28
2018-07-14T16:45:39.951Z,36.28
2018-07-14T16:48:11.066Z,35.92
2018-07-14T16:50:41.721Z,35.86
2018-07-14T16:53:12.497Z,35.84
2018-07-14T16:55:43.247Z,35.27
2018-07-14T16:58:14.329Z,35.34
2018-07-14T17:00:45.214Z,34.93
2018-07-14T17:03:16.008Z,35.11
2018-07-14T17:05:46.572Z,35.07
2018-07-14T17:08:17.319Z,34.99
2018-07-14T17:10:48.007Z,34.62
2018-07-14T17:13:18.710Z,34.29
2018-07-14T17:15:49.414Z,34.19
2018-07-14T17:18:20.130Z,34.02
2018-07-14T17:20:50.523Z,34.21
2018-07-14T17:23:20.830Z,33.78
2018-07-14T17:25:51.173Z,33.57
2018-07-14T17:28:21.509Z,33.33
2018-07-14T17:30:51.793Z,33.09
2018-07-14T17:33:22.597Z,33.04
2018-07-14T17:35:53.297Z,33.06
2018-07-14T17:38:24.422Z,32.84
2018-07-14T17:40:55.060Z,32.54
2018-07-14T17:43:25.966Z,32.64
2018-07-14T17:45:56.674Z,32.45
2018-07-14T17:48:27.547Z,32.41
2018-07-14T17:50:58.252Z,32.12
2018-07-14T17:53:28.914Z,31.92
2018-07-14T17:55:59.566Z,31.88
2018-07-14T17:58:30.441Z,31.90
2018-07-14T18:01:01.151Z,31.76
2018-07-14T18:03:32.103Z,31.62
2018-07-14T18:06:02.815Z,31.35
2018-07-14T18:08:33.686Z,31.51
2018-07-14T18:11:04.406Z,31.55
2018-07-14T18:13:35.171Z,31.52
2018-07-14T18:16:05.938Z,31.42
2018-07-14T18:18:36.682Z,31.30
2018-07-14T18:21:07.586Z,31.22
2018-07-14T18:23:37.938Z,31.21
2018-07-14T18:26:08.260Z,31.29
2018-07-14T18:28:38.864Z,31.04
2018-07-14T18:31:09.167Z,31.10
2018-07-14T18:33:39.547Z,30.71
2018-07-14T18:36:09.946Z,30.89
2018-07-14T18:38:40.293Z,30.82
2018-07-14T18:41:10.981Z,30.71
2018-07-14T18:43:41.749Z,30.48
2018-07-14T18:46:12.468Z,30.34
2018-07-14T18:48:43.723Z,30.35
2018-07-14T18:51:14.414Z,30.23
2018-07-14T18:53:44.930Z,30.00
2018-07-14T18:56:15.537Z,30.05
2018-07-14T18:58:46.223Z,30.24
2018-07-14T19:01:16.918Z,30.50
2018-07-14T19:03:47.658Z,30.65
2018-07-14T19:06:18.154Z,30.55
2018-07-14T19:08:48.848Z,30.33
2018-07-14T19:11:19.461Z,30.45
2018-07-14T19:13:49.930Z,30.42
2018-07-14T19:16:20.230Z,30.38
2018-07-14T19:18:50.981Z,30.31
2018-07-14T19:21:21.642Z,30.29
2018-07-14T19:23:52.454Z,29.97
2018-07-14T19:26:23.272Z,30.07
2018-07-14T19:28:54.546Z,30.27
2018-07-14T19:31:25.786Z,30.21
2018-07-14T19:33:56.358Z,30.15
2018-07-14T19:36:27.111Z,29.95
2018-07-14T19:38:57.951Z,29.86
2018-07-14T19:41:28.737Z,29.59
2018-07-14T19:43:59.638Z,29.78
2018-07-14T19:46:30.218Z,29.45
2018-07-14T19:49:01.118Z,29.60
2018-07-14T19:51:31.682Z,29.60
2018-07-14T19:54:02.041Z,29.64
2018-07-14T19:56:33.119Z,29.66
2018-07-14T19:59:03.874Z,29.49
2018-07-14T20:01:34.521Z,29.18
2018-07-14T20:04:05.361Z,29.34
2018-07-14T20:06:36.137Z,29.34
2018-07-14T20:09:08.113Z,29.24
2018-07-14T20:11:38.873Z,29.28
2018-07-14T20:14:09.633Z,29.19
2018-07-14T20:16:40.286Z,29.12
2018-07-14T20:19:11.153Z,29.17
2018-07-14T20:21:41.797Z,29.06
2018-07-14T20:24:12.490Z,28.87
2018-07-14T20:26:43.206Z,29.06
2018-07-14T20:29:14.153Z,28.90
2018-07-14T20:31:44.390Z,28.83
2018-07-14T20:34:16.554Z,28.73
2018-07-14T20:36:47.052Z,28.66
2018-07-14T20:39:17.738Z,28.53
2018-07-14T20:41:48.451Z,28.37
2018-07-14T20:44:19.255Z,28.34
2018-07-14T20:46:50.003Z,28.25
2018-07-14T20:49:20.795Z,28.13
2018-07-14T20:51:51.435Z,28.03
2018-07-14T20:54:22.251Z,27.82
2018-07-14T20:56:52.976Z,27.87
2018-07-14T20:59:23.897Z,27.87
2018-07-14T21:01:54.594Z,27.83
2018-07-14T21:04:25.791Z,27.66
2018-07-14T21:06:56.483Z,27.71
2018-07-14T21:09:27.588Z,27.60
2018-07-14T21:11:58.250Z,27.71
2018-07-14T21:14:28.989Z,27.55
2018-07-14T21:16:59.690Z,27.71
2018-07-14T21:19:30.857Z,26.10
2018-07-14T21:22:01.465Z,26.08
2018-07-14T21:24:32.247Z,25.59
2018-07-14T21:27:02.969Z,25.57
2018-07-14T21:29:33.770Z,25.39
2018-07-14T21:32:04.374Z,25.94
2018-07-14T21:34:35.150Z,26.14
2018-07-14T21:37:05.836Z,26.35
2018-07-14T21:39:38.341Z,26.25
2018-07-14T21:42:09.030Z,25.88
2018-07-14T21:44:39.733Z,26.13
2018-07-14T21:47:10.411Z,26.18
2018-07-14T21:49:41.877Z,25.96
2018-07-14T21:52:12.429Z,25.80
2018-07-14T21:54:43.489Z,25.95
2018-07-14T21:57:14.169Z,25.97
2018-07-14T21:59:44.781Z,25.99
2018-07-14T22:02:15.449Z,25.99
2018-07-14T22:04:46.137Z,25.70
2018-07-14T22:07:16.912Z,25.53
2018-07-14T22:09:47.638Z,25.35
2018-07-14T22:12:18.318Z,25.41
2018-07-14T22:14:49.035Z,25.55
2018-07-14T22:17:19.794Z,24.90
2018-07-14T22:19:50.401Z,25.35
2018-07-14T22:22:21.357Z,25.48
2018-07-14T22:24:52.082Z,25.47
2018-07-14T22:27:22.813Z,25.51
2018-07-14T22:29:53.498Z,25.44
2018-07-14T22:32:24.254Z,25.44
2018-07-14T22:34:55.187Z,25.46
2018-07-14T22:37:25.961Z,25.63
2018-07-14T22:39:56.686Z,25.68
2018-07-14T22:42:27.482Z,25.77
2018-07-14T22:44:59.870Z,25.68
2018-07-14T22:47:30.606Z,25.79
2018-07-14T22:50:01.245Z,25.70
2018-07-14T22:52:31.357Z,25.67
2018-07-14T22:55:01.618Z,25.57
2018-07-14T22:57:32.482Z,25.47
2018-07-14T23:00:03.219Z,25.52
2018-07-14T23:02:33.986Z,25.52
2018-07-14T23:05:04.146Z,25.47
2018-07-14T23:07:35.522Z,25.50
2018-07-14T23:10:06.393Z,25.47
2018-07-14T23:12:37.227Z,25.30
2018-07-14T23:15:08.057Z,25.54
2018-07-14T23:17:38.851Z,25.44
2018-07-14T23:20:09.500Z,25.50
2018-07-14T23:22:40.177Z,25.52
2018-07-14T23:25:10.870Z,25.59
2018-07-14T23:27:41.853Z,25.40
2018-07-14T23:30:12.518Z,25.29
2018-07-14T23:32:43.301Z,25.42
2018-07-14T23:35:13.970Z,25.22
2018-07-14T23:37:44.830Z,25.35
2018-07-14T23:40:15.506Z,25.34
2018-07-14T23:42:46.298Z,25.35
2018-07-14T23:45:17.014Z,25.49
2018-07-14T23:47:47.875Z,25.57
2018-07-14T23:50:18.509Z,25.36
2018-07-14T23:52:49.308Z,25.37
2018-07-14T23:55:19.989Z,25.43
2018-07-14T23:57:50.585Z,25.55
